Time;durP1;ratioP1;P1;durP2;ratioP2;P2;SDS_P1;SDS_P2;PMS_P1;PMS_P2;Temp;Humidity;BMP_temperature;BMP_pressure;BME280_temperature;BME280_humidity;BME280_pressure;Samples;Min_cycle;Max_cycle;Signal;HPM_P1;HPM_P2
2022/12/07 00:00:42;;;;;;;25.98;23.20;;;7.40;99.90;;;;;;2084294;28;20043;-72
2022/12/07 00:01:44;;;;;;;25.67;22.77;;;7.50;99.90;;;;;;2075450;28;20445;-72
2022/12/07 00:02:45;;;;;;;25.83;22.92;;;7.50;99.90;;;;;;2069988;28;20030;-72
2022/12/07 00:03:47;;;;;;;25.52;22.80;;;7.50;99.90;;;;;;2075994;28;20056;-72
2022/12/07 00:04:49;;;;;;;26.02;23.08;;;7.50;99.90;;;;;;2076395;28;20025;-72
2022/12/07 00:05:49;;;;;;;25.15;22.30;;;7.50;99.90;;;;;;2078829;28;20042;-72
2022/12/07 00:06:52;;;;;;;25.10;21.98;;;7.50;99.90;;;;;;2076454;28;20017;-72
2022/12/07 00:07:53;;;;;;;25.15;22.45;;;7.40;99.90;;;;;;2077331;28;20013;-71
2022/12/07 00:08:53;;;;;;;24.30;21.80;;;7.40;99.90;;;;;;2079336;28;20030;-72
2022/12/07 00:09:54;;;;;;;24.77;22.02;;;7.40;99.90;;;;;;2075005;28;20321;-72
2022/12/07 00:10:54;;;;;;;23.50;21.02;;;7.40;99.90;;;;;;2077806;28;20713;-72
2022/12/07 00:11:55;;;;;;;26.73;21.15;;;7.40;99.90;;;;;;2076528;28;20176;-72
2022/12/07 00:12:55;;;;;;;23.48;21.08;;;7.40;99.90;;;;;;2077161;28;20099;-72
2022/12/07 00:13:59;;;;;;;24.27;21.67;;;7.40;99.90;;;;;;2084190;28;20499;-72
2022/12/07 00:14:59;;;;;;;23.73;20.67;;;7.50;99.90;;;;;;2082434;28;20037;-72
2022/12/07 00:16:02;;;;;;;23.95;21.35;;;7.50;99.90;;;;;;2076408;28;20542;-72
2022/12/07 00:17:02;;;;;;;24.10;21.52;;;7.50;99.90;;;;;;2076316;28;20025;-72
2022/12/07 00:18:03;;;;;;;23.73;21.20;;;7.50;99.90;;;;;;2076772;28;20037;-72
2022/12/07 00:19:04;;;;;;;24.73;20.42;;;7.50;99.90;;;;;;2078938;28;20049;-72
2022/12/07 00:20:05;;;;;;;22.27;20.05;;;7.50;99.90;;;;;;2077025;28;20064;-71
2022/12/07 00:21:08;;;;;;;21.35;18.95;;;7.50;99.90;;;;;;2077161;28;20018;-71
2022/12/07 00:22:09;;;;;;;22.17;19.77;;;7.50;99.90;;;;;;2077869;28;20406;-72
2022/12/07 00:23:09;;;;;;;24.50;19.45;;;7.50;99.90;;;;;;2075299;28;20084;-72
2022/12/07 00:24:12;;;;;;;23.70;18.60;;;7.50;99.90;;;;;;2078397;28;20017;-72
2022/12/07 00:25:13;;;;;;;21.58;19.10;;;7.50;99.90;;;;;;2075815;28;20022;-72
2022/12/07 00:26:15;;;;;;;20.73;18.73;;;7.50;99.90;;;;;;2077004;28;20036;-71
2022/12/07 00:27:16;;;;;;;20.45;18.17;;;7.50;99.90;;;;;;2079507;28;20033;-72
2022/12/07 00:28:16;;;;;;;20.42;18.23;;;7.60;99.90;;;;;;2076995;28;20024;-72
2022/12/07 00:29:20;;;;;;;22.77;17.88;;;7.50;99.90;;;;;;2075950;28;20628;-72
2022/12/07 00:30:20;;;;;;;19.23;17.27;;;7.60;99.90;;;;;;2077370;28;20021;-72
2022/12/07 00:31:23;;;;;;;20.30;18.10;;;7.60;99.90;;;;;;2077341;28;20029;-72
2022/12/07 00:32:23;;;;;;;20.05;17.88;;;7.60;99.90;;;;;;2075856;28;20025;-71
2022/12/07 00:33:24;;;;;;;18.65;16.70;;;7.50;99.90;;;;;;2075624;28;20044;-72
2022/12/07 00:34:24;;;;;;;20.73;17.80;;;7.50;99.90;;;;;;2075858;28;20548;-72
2022/12/07 00:35:25;;;;;;;21.75;17.63;;;7.50;99.90;;;;;;2078024;28;20052;-72
2022/12/07 00:36:26;;;;;;;19.90;17.80;;;7.60;99.90;;;;;;2077642;28;20025;-72
2022/12/07 00:37:26;;;;;;;18.42;16.52;;;7.50;99.90;;;;;;2078747;28;20048;-72
2022/12/07 00:38:29;;;;;;;21.98;18.15;;;7.60;99.90;;;;;;2076693;28;20105;-72
2022/12/07 00:39:30;;;;;;;20.55;18.35;;;7.60;99.90;;;;;;2077568;28;20032;-72
2022/12/07 00:40:30;;;;;;;24.38;17.67;;;7.60;99.90;;;;;;2085558;28;20029;-72
2022/12/07 00:41:31;;;;;;;19.38;17.55;;;7.60;99.90;;;;;;2082713;28;20366;-72
2022/12/07 00:42:32;;;;;;;19.58;17.52;;;7.60;99.90;;;;;;2075818;28;20802;-71
2022/12/07 00:43:33;;;;;;;21.27;17.77;;;7.60;99.90;;;;;;2076209;28;20026;-72
2022/12/07 00:44:34;;;;;;;19.00;16.95;;;7.60;99.90;;;;;;2076255;28;20100;-72
2022/12/07 00:45:34;;;;;;;21.23;17.63;;;7.60;99.90;;;;;;2076976;28;20029;-72
2022/12/07 00:46:35;;;;;;;19.58;17.30;;;7.60;99.90;;;;;;2077493;28;20060;-72
2022/12/07 00:47:35;;;;;;;22.13;18.27;;;7.60;99.90;;;;;;2077061;28;20615;-72
2022/12/07 00:48:36;;;;;;;19.55;17.48;;;7.60;99.90;;;;;;2075795;28;20030;-71
2022/12/07 00:49:36;;;;;;;21.42;18.55;;;7.60;99.90;;;;;;2077141;28;20087;-72
2022/12/07 00:50:37;;;;;;;20.45;18.27;;;7.60;99.90;;;;;;2076329;28;20477;-71
2022/12/07 00:51:38;;;;;;;19.83;17.67;;;7.60;99.90;;;;;;2077367;28;20064;-71
2022/12/07 00:52:38;;;;;;;22.10;18.17;;;7.60;99.90;;;;;;2077465;28;20029;-71
2022/12/07 00:53:39;;;;;;;19.73;17.65;;;7.60;99.90;;;;;;2084553;28;20812;-72
2022/12/07 00:54:40;;;;;;;20.60;18.45;;;7.60;99.90;;;;;;2082779;28;20044;-71
2022/12/07 00:55:41;;;;;;;20.10;17.52;;;7.60;99.90;;;;;;2077893;28;20534;-71
2022/12/07 00:56:42;;;;;;;19.25;17.17;;;7.60;99.90;;;;;;2078140;28;20549;-72
2022/12/07 00:57:42;;;;;;;20.38;18.27;;;7.60;99.90;;;;;;2077949;28;20021;-72
2022/12/07 00:58:43;;;;;;;21.67;17.75;;;7.60;99.90;;;;;;2077475;28;20073;-72
2022/12/07 00:59:44;;;;;;;21.00;18.88;;;7.60;99.90;;;;;;2076410;28;20458;-72
2022/12/07 01:00:45;;;;;;;20.67;18.63;;;7.60;99.90;;;;;;2075524;28;20489;-71
2022/12/07 01:01:45;;;;;;;20.52;18.30;;;7.60;99.90;;;;;;2077924;28;20084;-72
2022/12/07 01:02:46;;;;;;;23.30;18.77;;;7.60;99.90;;;;;;2077162;28;20520;-71
2022/12/07 01:03:46;;;;;;;21.45;19.02;;;7.60;99.90;;;;;;2076923;28;20021;-72
2022/12/07 01:04:47;;;;;;;22.85;20.30;;;7.60;99.90;;;;;;2076468;28;20064;-72
2022/12/07 01:05:52;;;;;;;23.50;20.00;;;7.60;99.90;;;;;;2074231;28;20037;-72
2022/12/07 01:06:53;;;;;;;22.05;19.65;;;7.60;99.90;;;;;;2076894;28;20053;-71
2022/12/07 01:07:54;;;;;;;22.02;19.65;;;7.60;99.90;;;;;;2076946;28;20101;-72
2022/12/07 01:08:55;;;;;;;25.10;20.42;;;7.60;99.90;;;;;;2076429;28;20084;-71
2022/12/07 01:09:55;;;;;;;23.10;20.63;;;7.60;99.90;;;;;;2076741;28;20031;-71
2022/12/07 01:11:05;;;;;;;22.35;20.13;;;7.60;99.90;;;;;;2078244;28;20033;-72
2022/12/07 01:12:05;;;;;;;23.13;20.83;;;7.60;99.90;;;;;;2077748;28;20436;-72
2022/12/07 01:13:06;;;;;;;22.08;19.70;;;7.50;99.90;;;;;;2075335;28;20064;-72
2022/12/07 01:14:06;;;;;;;24.33;20.98;;;7.50;99.90;;;;;;2075615;28;20046;-72
2022/12/07 01:15:08;;;;;;;21.50;19.15;;;7.60;99.90;;;;;;2076095;28;20101;-72
2022/12/07 01:16:11;;;;;;;24.23;21.70;;;7.60;99.90;;;;;;2077267;28;20029;-72
2022/12/07 01:17:12;;;;;;;23.58;21.27;;;7.60;99.90;;;;;;2077926;28;20029;-71
2022/12/07 01:18:12;;;;;;;24.13;20.88;;;7.60;99.90;;;;;;2076236;28;20037;-72
2022/12/07 01:19:13;;;;;;;25.02;21.73;;;7.60;99.90;;;;;;2076694;28;20033;-72
2022/12/07 01:20:15;;;;;;;24.48;21.17;;;7.60;99.90;;;;;;2075948;28;20022;-72
2022/12/07 01:21:20;;;;;;;22.48;20.15;;;7.60;99.90;;;;;;2075115;28;20745;-72
2022/12/07 01:22:21;;;;;;;22.55;20.30;;;7.60;99.90;;;;;;2076552;28;20013;-72
2022/12/07 01:23:21;;;;;;;22.27;20.10;;;7.60;99.90;;;;;;2076117;28;20029;-72
2022/12/07 01:24:22;;;;;;;24.58;21.35;;;7.60;99.90;;;;;;2085029;28;20179;-72
2022/12/07 01:25:22;;;;;;;25.00;20.88;;;7.60;99.90;;;;;;2084433;28;20021;-72
2022/12/07 01:26:24;;;;;;;25.25;22.65;;;7.60;99.90;;;;;;2068096;28;20030;-72
2022/12/07 01:27:24;;;;;;;24.60;22.02;;;7.60;99.90;;;;;;2076810;28;20017;-72
2022/12/07 01:28:25;;;;;;;26.23;23.42;;;7.60;99.90;;;;;;2077667;28;20029;-72
2022/12/07 01:29:26;;;;;;;23.80;21.33;;;7.60;99.90;;;;;;2077233;28;20461;-71
2022/12/07 01:30:26;;;;;;;24.10;21.55;;;7.60;99.90;;;;;;2078077;28;20021;-72
2022/12/07 01:31:28;;;;;;;24.95;22.35;;;7.60;99.90;;;;;;2076907;28;20036;-72
2022/12/07 01:32:29;;;;;;;25.65;22.92;;;7.60;99.90;;;;;;2076087;28;20500;-72
2022/12/07 01:33:32;;;;;;;24.60;22.02;;;7.60;99.90;;;;;;2075052;28;20122;-71
2022/12/07 01:34:33;;;;;;;24.83;22.38;;;7.60;99.90;;;;;;2076030;28;20449;-72
2022/12/07 01:35:34;;;;;;;25.00;22.52;;;7.60;99.90;;;;;;2076835;28;20436;-72
2022/12/07 01:36:35;;;;;;;24.95;22.27;;;7.60;99.90;;;;;;2075338;28;20630;-72
2022/12/07 01:37:37;;;;;;;27.05;22.95;;;7.60;99.90;;;;;;2075205;28;20026;-72
2022/12/07 01:38:38;;;;;;;26.10;23.40;;;7.60;99.90;;;;;;2074614;28;20057;-72
2022/12/07 01:39:38;;;;;;;26.15;23.35;;;7.60;99.90;;;;;;2076320;28;20032;-72
2022/12/07 01:40:39;;;;;;;26.35;23.73;;;7.60;99.90;;;;;;2072551;28;20072;-72
2022/12/07 01:41:43;;;;;;;25.30;22.75;;;7.60;99.90;;;;;;2075459;28;20485;-72
2022/12/07 01:42:43;;;;;;;26.17;23.05;;;7.60;99.90;;;;;;2075382;28;20029;-72
2022/12/07 01:44:16;;;;;;;26.13;23.63;;;7.60;99.90;;;;;;2075971;28;20017;-72
2022/12/07 01:45:40;;;;;;;25.15;22.63;;;7.60;99.90;;;;;;2075790;28;20037;-72
2022/12/07 01:46:42;;;;;;;26.73;23.17;;;7.60;99.90;;;;;;2077475;28;20036;-71
2022/12/07 01:47:48;;;;;;;26.42;23.75;;;7.60;99.90;;;;;;2075419;28;20109;-72
2022/12/07 01:48:49;;;;;;;25.65;23.05;;;7.60;99.90;;;;;;2076843;28;20482;-72
2022/12/07 01:49:49;;;;;;;24.42;21.65;;;7.60;99.90;;;;;;2076788;28;20704;-72
2022/12/07 01:50:53;;;;;;;24.85;21.75;;;7.60;99.90;;;;;;2075831;28;20460;-71
2022/12/07 01:52:03;;;;;;;25.65;21.55;;;7.60;99.90;;;;;;2076023;28;20025;-72
2022/12/07 01:53:05;;;;;;;;;;;7.60;99.90;;;;;;2075604;28;20025;-72
2022/12/07 01:54:07;;;;;;;24.08;21.67;;;7.50;99.90;;;;;;2075235;28;19913;-72
2022/12/07 01:55:11;;;;;;;24.17;21.83;;;7.50;99.90;;;;;;2076170;28;20030;-72
2022/12/07 01:56:17;;;;;;;24.60;22.08;;;7.60;99.90;;;;;;2076265;28;20025;-72
2022/12/07 01:57:19;;;;;;;25.92;23.38;;;7.60;99.90;;;;;;2076234;28;20528;-72
2022/12/07 01:58:20;;;;;;;25.08;22.48;;;7.60;99.90;;;;;;2075710;28;20100;-71
2022/12/07 01:59:24;;;;;;;26.10;23.17;;;7.60;99.90;;;;;;2076913;28;20021;-72
2022/12/07 02:00:25;;;;;;;27.02;24.23;;;7.60;99.90;;;;;;2077472;28;20526;-72
2022/12/07 02:01:25;;;;;;;25.30;22.60;;;7.60;99.90;;;;;;2085442;28;21441;-72
2022/12/07 02:02:31;;;;;;;26.63;22.45;;;7.60;99.90;;;;;;2085163;28;20028;-72
2022/12/07 02:03:37;;;;;;;26.02;23.20;;;7.60;99.90;;;;;;2075398;28;20099;-72
2022/12/07 02:04:38;;;;;;;24.95;22.33;;;7.60;99.90;;;;;;2076400;28;20022;-71
2022/12/07 02:05:41;;;;;;;25.27;22.67;;;7.60;99.90;;;;;;2074754;28;20038;-72
2022/12/07 02:06:44;;;;;;;24.27;21.67;;;7.60;99.90;;;;;;2075603;28;20044;-72
2022/12/07 02:07:47;;;;;;;25.67;23.17;;;7.60;99.90;;;;;;2077766;28;20582;-72
2022/12/07 02:08:47;;;;;;;25.00;22.58;;;7.60;99.90;;;;;;2083819;28;20092;-72
2022/12/07 02:09:48;;;;;;;24.83;22.20;;;7.60;99.90;;;;;;2084815;28;20127;-71
2022/12/07 02:10:48;;;;;;;26.67;23.85;;;7.60;99.90;;;;;;2074087;28;20041;-71
2022/12/07 02:11:50;;;;;;;25.70;23.05;;;7.60;99.90;;;;;;2076992;28;20084;-72
2022/12/07 02:12:58;;;;;;;25.83;23.23;;;7.60;99.90;;;;;;2077462;28;20111;-72
2022/12/07 02:13:58;;;;;;;25.15;22.55;;;7.60;99.90;;;;;;2076632;28;20079;-72
2022/12/07 02:14:59;;;;;;;24.75;22.27;;;7.70;99.90;;;;;;2075494;28;20095;-72
2022/12/07 02:16:35;;;;;;;26.02;23.25;;;7.70;99.90;;;;;;2075862;28;20021;-72
2022/12/07 02:17:51;;;;;;;27.08;23.80;;;7.70;99.90;;;;;;2075508;28;20091;-72
2022/12/07 02:19:14;;;;;;;25.80;23.02;;;7.70;99.90;;;;;;2076891;28;20025;-72
2022/12/07 02:20:32;;;;;;;27.52;24.55;;;7.70;99.90;;;;;;2076449;28;20109;-71
2022/12/07 02:22:04;;;;;;;25.42;22.88;;;7.60;99.90;;;;;;2076316;28;20026;-72
2022/12/07 02:23:42;;;;;;;25.75;22.45;;;7.60;99.90;;;;;;2074905;28;20053;-72
2022/12/07 02:25:08;;;;;;;25.83;23.02;;;7.50;99.90;;;;;;2081147;28;20108;-72
2022/12/07 02:26:35;;;;;;;26.00;23.30;;;7.50;99.90;;;;;;2080150;28;20029;-72
2022/12/07 02:27:43;;;;;;;26.27;23.65;;;7.50;99.90;;;;;;2083986;28;20032;-71
2022/12/07 02:29:11;;;;;;;25.95;23.33;;;7.50;99.90;;;;;;2083682;28;20152;-72
2022/12/07 02:30:20;;;;;;;27.58;23.95;;;7.50;99.90;;;;;;2076593;28;20625;-71
2022/12/07 02:31:23;;;;;;;26.85;24.05;;;7.50;99.90;;;;;;2075029;28;20079;-71
2022/12/07 02:32:54;;;;;;;27.88;25.00;;;7.50;99.90;;;;;;2075897;28;20025;-72
2022/12/07 02:34:07;;;;;;;26.60;24.00;;;7.50;99.90;;;;;;2075945;28;20025;-72
2022/12/07 02:35:39;;;;;;;30.42;27.15;;;7.40;99.90;;;;;;2075114;28;20030;-71
2022/12/07 02:36:46;;;;;;;28.45;24.92;;;7.40;99.90;;;;;;2068052;28;20041;-72
2022/12/07 02:38:10;;;;;;;26.05;22.10;;;7.40;99.90;;;;;;2076682;28;20033;-71
2022/12/07 02:39:19;;;;;;;27.10;24.15;;;7.50;99.90;;;;;;2074815;28;20018;-71
2022/12/07 02:40:42;;;;;;;28.58;24.85;;;7.50;99.90;;;;;;2077787;28;20079;-71
2022/12/07 02:41:53;;;;;;;26.50;23.90;;;7.50;99.90;;;;;;2075985;28;20633;-72
2022/12/07 02:43:01;;;;;;;25.73;23.08;;;7.50;99.90;;;;;;2075014;28;20052;-72
2022/12/07 02:44:09;;;;;;;25.08;22.65;;;7.50;99.90;;;;;;2076224;28;20663;-72
2022/12/07 02:45:13;;;;;;;25.83;23.27;;;7.50;99.90;;;;;;2076519;28;20448;-72
2022/12/07 02:46:18;;;;;;;24.45;22.10;;;7.50;99.90;;;;;;2075398;28;20022;-71
2022/12/07 02:47:21;;;;;;;26.83;24.08;;;7.50;99.90;;;;;;2072449;28;20402;-72
2022/12/07 02:48:24;;;;;;;26.65;23.45;;;7.50;99.90;;;;;;2074049;28;20033;-72
2022/12/07 02:49:27;;;;;;;24.92;22.23;;;7.50;99.90;;;;;;2076140;28;20029;-72
2022/12/07 02:50:28;;;;;;;25.65;23.02;;;7.50;99.90;;;;;;2076649;28;20036;-72
2022/12/07 02:51:33;;;;;;;24.83;22.17;;;7.50;99.90;;;;;;2075872;28;20112;-72
2022/12/07 02:52:34;;;;;;;24.17;21.63;;;7.50;99.90;;;;;;2075380;28;20032;-71
2022/12/07 02:53:40;;;;;;;24.60;22.02;;;7.50;99.90;;;;;;2076793;28;20033;-72
2022/12/07 02:54:40;;;;;;;24.40;21.85;;;7.50;99.90;;;;;;2076121;28;20036;-72
2022/12/07 02:55:42;;;;;;;24.20;21.48;;;7.50;99.90;;;;;;2073770;28;20029;-71
2022/12/07 02:57:10;;;;;;;26.10;23.40;;;7.50;99.90;;;;;;2076322;28;20428;-71
2022/12/07 02:58:22;;;;;;;23.75;21.25;;;7.60;99.90;;;;;;2070275;28;20094;-72
2022/12/07 02:59:51;;;;;;;24.23;21.63;;;7.60;99.90;;;;;;2075955;28;20033;-72
2022/12/07 03:01:01;;;;;;;24.90;21.42;;;7.50;99.90;;;;;;2074439;28;20021;-72
2022/12/07 03:02:35;;;;;;;24.08;21.48;;;7.50;99.90;;;;;;2074279;28;20665;-72
2022/12/07 03:03:37;;;;;;;24.52;21.55;;;7.50;99.90;;;;;;2076298;28;20034;-72
2022/12/07 03:05:02;;;;;;;26.08;22.77;;;7.50;99.90;;;;;;2076316;28;20564;-72
2022/12/07 03:06:23;;;;;;;24.38;21.67;;;7.50;99.90;;;;;;2075878;28;20065;-72
2022/12/07 03:07:33;;;;;;;22.63;19.98;;;7.50;99.90;;;;;;2074493;28;20041;-71
2022/12/07 03:08:50;;;;;;;23.67;21.23;;;7.40;99.90;;;;;;2084695;28;20029;-72
2022/12/07 03:10:24;;;;;;;22.33;20.15;;;7.50;99.90;;;;;;2075695;28;20030;-71
2022/12/07 03:11:35;;;;;;;24.67;22.08;;;7.50;99.90;;;;;;2080137;28;20381;-72
2022/12/07 03:13:08;;;;;;;23.65;21.33;;;7.40;99.90;;;;;;2083214;28;20411;-72
2022/12/07 03:14:22;;;;;;;26.33;21.63;;;7.40;99.90;;;;;;2075049;28;20042;-72
2022/12/07 03:15:31;;;;;;;24.35;21.85;;;7.40;99.90;;;;;;2074040;28;20488;-72
2022/12/07 03:16:52;;;;;;;23.27;20.85;;;7.40;99.90;;;;;;2074411;28;20030;-72
2022/12/07 03:17:56;;;;;;;26.50;21.50;;;7.50;99.90;;;;;;2074590;28;20049;-72
2022/12/07 03:19:03;;;;;;;24.92;22.33;;;7.40;99.90;;;;;;2075808;28;20020;-72
2022/12/07 03:20:07;;;;;;;22.70;20.17;;;7.50;99.90;;;;;;2075516;28;20043;-72
2022/12/07 03:21:15;;;;;;;25.00;22.30;;;7.50;99.90;;;;;;2076101;28;21325;-72
2022/12/07 03:22:17;;;;;;;25.15;22.08;;;7.40;99.90;;;;;;2075202;28;20464;-71
2022/12/07 03:23:19;;;;;;;23.80;21.50;;;7.40;99.90;;;;;;2076082;28;20362;-72
2022/12/07 03:24:23;;;;;;;24.40;21.80;;;7.40;99.90;;;;;;2074209;28;20026;-71
2022/12/07 03:25:25;;;;;;;27.95;22.60;;;7.50;99.90;;;;;;2076480;28;20022;-72
2022/12/07 03:26:32;;;;;;;23.10;20.80;;;7.40;99.90;;;;;;2076113;28;20053;-72
2022/12/07 03:28:04;;;;;;;24.05;21.65;;;7.40;99.90;;;;;;2077000;28;20532;-71
2022/12/07 03:29:10;;;;;;;20.20;17.60;;;7.40;99.90;;;;;;2068894;28;20042;-72
2022/12/07 03:30:18;;;;;;;23.08;20.65;;;7.40;99.90;;;;;;2075139;28;20045;-72
2022/12/07 03:31:32;;;;;;;21.65;19.27;;;7.40;99.90;;;;;;2082307;28;20033;-72
2022/12/07 03:32:39;;;;;;;22.80;19.50;;;7.40;99.90;;;;;;2081967;28;20013;-72
2022/12/07 03:33:53;;;;;;;22.35;20.08;;;7.30;99.90;;;;;;2075160;28;20025;-72
2022/12/07 03:35:03;;;;;;;22.83;19.60;;;7.40;99.90;;;;;;2076437;28;20216;-71
2022/12/07 03:36:31;;;;;;;24.13;20.52;;;7.40;99.90;;;;;;2077482;28;20041;-72
2022/12/07 03:37:37;;;;;;;22.33;20.23;;;7.30;99.90;;;;;;2075192;28;20022;-72
2022/12/07 03:38:44;;;;;;;21.67;19.40;;;7.30;99.90;;;;;;2076578;28;20095;-71
2022/12/07 03:40:02;;;;;;;23.83;21.33;;;7.30;99.90;;;;;;2075559;28;21008;-72
2022/12/07 03:41:22;;;;;;;23.83;21.25;;;7.30;99.90;;;;;;2075512;28;20022;-72
2022/12/07 03:42:23;;;;;;;21.90;18.80;;;7.30;99.90;;;;;;2077435;28;20029;-72
2022/12/07 03:43:23;;;;;;;19.08;17.10;;;7.20;99.90;;;;;;2076873;28;20595;-72
2022/12/07 03:44:24;;;;;;;20.90;18.70;;;7.20;99.90;;;;;;2075167;28;20034;-71
2022/12/07 03:45:48;;;;;;;19.63;17.63;;;7.20;99.90;;;;;;2076197;28;20545;-71
2022/12/07 03:46:59;;;;;;;23.75;20.27;;;7.30;99.90;;;;;;2074903;28;20041;-72
2022/12/07 03:48:26;;;;;;;26.20;20.95;;;7.30;99.90;;;;;;2074051;28;20071;-71
2022/12/07 03:49:53;;;;;;;22.30;19.95;;;7.20;99.90;;;;;;2070975;28;20098;-72
2022/12/07 03:51:13;;;;;;;22.35;19.75;;;7.20;99.90;;;;;;2074344;28;20108;-72
2022/12/07 03:52:38;;;;;;;21.38;18.15;;;7.20;99.90;;;;;;2073888;28;20029;-72
2022/12/07 03:54:05;;;;;;;23.35;21.02;;;7.10;99.90;;;;;;2074767;28;20038;-71
2022/12/07 03:55:16;;;;;;;22.75;20.35;;;7.10;99.90;;;;;;2059218;28;20066;-71
2022/12/07 03:56:18;;;;;;;24.00;21.20;;;7.00;99.90;;;;;;2076170;28;20033;-71
2022/12/07 03:57:19;;;;;;;23.13;20.73;;;7.00;99.90;;;;;;2076505;28;20136;-72
2022/12/07 03:58:22;;;;;;;23.58;20.90;;;7.00;99.90;;;;;;2076320;28;20026;-72
2022/12/07 03:59:23;;;;;;;20.40;18.33;;;7.00;99.90;;;;;;2076638;28;20093;-71
2022/12/07 04:00:23;;;;;;;22.92;19.67;;;7.00;99.90;;;;;;2074064;28;20021;-71
2022/12/07 04:01:25;;;;;;;22.52;20.10;;;7.00;99.90;;;;;;2073767;28;20091;-71
2022/12/07 04:02:27;;;;;;;22.63;20.08;;;7.00;99.90;;;;;;2074610;28;20111;-71
2022/12/07 04:03:28;;;;;;;21.95;19.48;;;7.00;99.90;;;;;;2076463;28;20040;-71
2022/12/07 04:04:29;;;;;;;22.75;20.38;;;7.00;99.90;;;;;;2076628;28;20556;-72
2022/12/07 04:05:29;;;;;;;23.92;21.20;;;7.00;99.90;;;;;;2075944;28;20079;-72
2022/12/07 04:06:30;;;;;;;22.80;19.42;;;7.00;99.90;;;;;;2075170;28;20517;-71
2022/12/07 04:07:33;;;;;;;21.00;18.20;;;7.00;99.90;;;;;;2075357;28;20535;-72
2022/12/07 04:08:34;;;;;;;24.98;19.48;;;7.00;99.90;;;;;;2074844;28;20030;-72
2022/12/07 04:09:34;;;;;;;20.90;18.63;;;7.00;99.90;;;;;;2077175;28;20033;-72
2022/12/07 04:10:35;;;;;;;21.58;18.10;;;7.00;99.90;;;;;;2074879;28;20112;-71
2022/12/07 04:11:36;;;;;;;20.33;18.23;;;6.90;99.90;;;;;;2073932;28;20448;-71
2022/12/07 04:12:36;;;;;;;21.52;19.42;;;6.90;99.90;;;;;;2075049;28;20405;-71
2022/12/07 04:14:18;;;;;;;20.65;17.75;;;6.90;99.90;;;;;;2067440;28;20054;-71
2022/12/07 04:14:57;;;;;;;;;;;6.90;99.90;;;;;;2074112;28;20021;-72
2022/12/07 04:15:58;;;;;;;22.08;18.92;;;6.80;99.90;;;;;;2075465;28;19998;-72
2022/12/07 04:16:59;;;;;;;22.30;19.27;;;6.80;99.90;;;;;;2075498;28;20026;-72
2022/12/07 04:18:00;;;;;;;26.13;19.40;;;6.80;99.90;;;;;;2072834;28;20033;-71
2022/12/07 04:19:00;;;;;;;21.60;19.42;;;6.80;99.90;;;;;;2076474;28;20828;-71
2022/12/07 04:20:01;;;;;;;21.45;19.25;;;6.80;99.90;;;;;;2076485;28;20014;-72
2022/12/07 04:21:02;;;;;;;22.58;20.23;;;6.80;99.90;;;;;;2075631;28;20030;-71
2022/12/07 04:22:04;;;;;;;21.95;19.50;;;6.80;99.90;;;;;;2076544;28;20026;-71
2022/12/07 04:23:05;;;;;;;29.35;19.60;;;6.70;99.90;;;;;;2076145;28;20029;-72
2022/12/07 04:24:05;;;;;;;21.88;19.58;;;6.80;99.90;;;;;;2077380;28;20068;-72
2022/12/07 04:25:06;;;;;;;21.60;19.33;;;6.70;99.90;;;;;;2075339;28;20397;-71
2022/12/07 04:26:07;;;;;;;20.40;17.75;;;6.70;99.90;;;;;;2076612;28;20149;-72
2022/12/07 04:27:07;;;;;;;20.17;18.10;;;6.70;99.90;;;;;;2077759;28;20045;-72
2022/12/07 04:28:08;;;;;;;23.25;19.10;;;6.70;99.90;;;;;;2076754;28;20413;-71
2022/12/07 04:29:09;;;;;;;19.48;17.40;;;6.70;99.90;;;;;;2075682;28;20473;-72
2022/12/07 04:30:10;;;;;;;18.88;16.85;;;6.70;99.90;;;;;;2076542;28;20068;-71
2022/12/07 04:31:11;;;;;;;21.13;19.08;;;6.70;99.90;;;;;;2083383;28;20025;-72
2022/12/07 04:32:11;;;;;;;20.58;18.52;;;6.70;99.90;;;;;;2077029;28;20029;-71
2022/12/07 04:33:12;;;;;;;20.38;18.27;;;6.70;99.90;;;;;;2076476;28;20450;-72
2022/12/07 04:34:13;;;;;;;20.73;18.52;;;6.70;99.90;;;;;;2074240;28;20422;-72
2022/12/07 04:35:14;;;;;;;23.75;19.98;;;6.70;99.90;;;;;;2076493;28;20052;-71
2022/12/07 04:36:14;;;;;;;24.25;19.08;;;6.70;99.90;;;;;;2078725;28;20032;-71
2022/12/07 04:37:15;;;;;;;21.90;19.02;;;6.70;99.90;;;;;;2078227;28;20108;-71
2022/12/07 04:38:15;;;;;;;20.77;18.52;;;6.70;99.90;;;;;;2085000;28;20499;-72
2022/12/07 04:39:20;;;;;;;19.70;17.80;;;6.70;99.90;;;;;;2082193;28;20047;-71
2022/12/07 04:40:21;;;;;;;21.25;18.90;;;6.70;99.90;;;;;;2075963;28;20506;-71
2022/12/07 04:41:26;;;;;;;19.27;16.83;;;6.70;99.90;;;;;;2078846;28;20887;-72
2022/12/07 04:42:28;;;;;;;19.48;16.10;;;6.70;99.90;;;;;;2074937;28;20076;-71
2022/12/07 04:43:28;;;;;;;20.48;18.35;;;6.70;99.90;;;;;;2068901;28;20029;-72
2022/12/07 04:44:30;;;;;;;20.90;18.73;;;6.70;99.90;;;;;;2075917;28;20033;-71
2022/12/07 04:45:31;;;;;;;21.83;18.60;;;6.70;99.90;;;;;;2076468;28;20041;-72
2022/12/07 04:46:32;;;;;;;20.08;18.08;;;6.70;99.90;;;;;;2076370;28;20049;-71
2022/12/07 04:47:33;;;;;;;21.42;19.23;;;6.70;99.90;;;;;;2075815;28;20021;-71
2022/12/07 04:48:33;;;;;;;18.60;16.73;;;6.70;99.90;;;;;;2085030;28;20606;-71
2022/12/07 04:49:34;;;;;;;21.33;19.13;;;6.70;99.90;;;;;;2083182;28;20799;-71
2022/12/07 04:50:35;;;;;;;21.27;18.00;;;6.70;99.90;;;;;;2077202;28;20037;-72
2022/12/07 04:51:36;;;;;;;20.40;18.40;;;6.70;99.90;;;;;;2077062;28;20508;-72
2022/12/07 04:52:36;;;;;;;21.58;17.67;;;6.70;99.90;;;;;;2075450;28;20398;-72
2022/12/07 04:53:37;;;;;;;21.92;18.35;;;6.70;99.90;;;;;;2075798;28;20037;-71
2022/12/07 04:54:37;;;;;;;21.02;18.52;;;6.70;99.90;;;;;;2077487;28;20037;-71
2022/12/07 04:55:38;;;;;;;23.38;18.88;;;6.70;99.90;;;;;;2076672;28;20064;-71
2022/12/07 04:56:39;;;;;;;20.90;18.80;;;6.70;99.90;;;;;;2076638;28;21069;-71
2022/12/07 04:57:39;;;;;;;16.17;14.50;;;6.80;99.90;;;;;;2078332;28;20072;-72
2022/12/07 04:58:40;;;;;;;21.00;18.67;;;6.80;99.90;;;;;;2076753;28;20104;-72
2022/12/07 04:59:41;;;;;;;18.08;16.23;;;6.80;99.90;;;;;;2075478;28;20076;-71
2022/12/07 05:00:41;;;;;;;19.10;17.02;;;6.80;99.90;;;;;;2075608;28;20461;-72
2022/12/07 05:01:42;;;;;;;22.95;18.02;;;6.80;99.90;;;;;;2076414;28;20540;-71
2022/12/07 05:02:43;;;;;;;21.02;17.73;;;6.80;99.90;;;;;;2077089;28;20099;-72
2022/12/07 05:03:43;;;;;;;21.92;19.63;;;6.80;99.90;;;;;;2076579;28;20037;-72
2022/12/07 05:04:44;;;;;;;22.05;19.80;;;6.80;99.90;;;;;;2076845;28;20039;-72
2022/12/07 05:05:44;;;;;;;20.27;17.13;;;6.80;99.90;;;;;;2078874;28;20029;-72
2022/12/07 05:06:45;;;;;;;23.30;18.92;;;6.80;99.90;;;;;;2086255;28;20077;-72
2022/12/07 05:07:45;;;;;;;19.00;16.05;;;6.80;99.90;;;;;;2083223;28;20017;-71
2022/12/07 05:08:46;;;;;;;18.70;16.70;;;6.80;99.90;;;;;;2077445;28;20026;-72
2022/12/07 05:09:46;;;;;;;21.45;18.70;;;6.80;99.90;;;;;;2078584;28;20041;-72
2022/12/07 05:10:49;;;;;;;24.27;18.25;;;6.80;99.90;;;;;;2076569;28;20025;-71
2022/12/07 05:11:49;;;;;;;21.77;19.52;;;6.80;99.90;;;;;;2075995;28;20017;-72
2022/12/07 05:12:50;;;;;;;20.10;17.55;;;6.80;99.90;;;;;;2076582;28;20040;-72
2022/12/07 05:13:50;;;;;;;20.52;18.23;;;6.70;99.90;;;;;;2078149;28;20021;-71
2022/12/07 05:14:51;;;;;;;19.67;17.40;;;6.70;99.90;;;;;;2076902;28;20017;-72
2022/12/07 05:15:51;;;;;;;18.85;16.85;;;6.70;99.90;;;;;;2077728;28;20026;-72
2022/12/07 05:16:53;;;;;;;19.33;17.00;;;6.80;99.90;;;;;;2075546;28;20481;-73
2022/12/07 05:17:53;;;;;;;24.38;18.33;;;6.80;99.90;;;;;;2074503;28;20033;-72
2022/12/07 05:18:54;;;;;;;22.80;17.88;;;6.70;99.90;;;;;;2075420;28;20068;-72
2022/12/07 05:19:55;;;;;;;20.98;17.88;;;6.70;99.90;;;;;;2075049;28;20036;-72
2022/12/07 05:20:55;;;;;;;24.35;17.67;;;6.70;99.90;;;;;;2076375;28;20017;-72
2022/12/07 05:21:56;;;;;;;22.45;17.80;;;6.70;99.90;;;;;;2077819;28;20022;-73
2022/12/07 05:22:58;;;;;;;20.75;15.07;;;6.70;99.90;;;;;;2076247;28;20022;-72
2022/12/07 05:23:58;;;;;;;18.88;16.88;;;6.70;99.90;;;;;;2076512;28;20029;-72
2022/12/07 05:24:59;;;;;;;19.65;16.35;;;6.70;99.90;;;;;;2077005;28;20108;-72
2022/12/07 05:25:59;;;;;;;22.60;17.75;;;6.70;99.90;;;;;;2075156;28;20053;-72
2022/12/07 05:27:00;;;;;;;20.85;17.95;;;6.70;99.90;;;;;;2077582;28;20033;-72
2022/12/07 05:28:00;;;;;;;18.70;16.70;;;6.70;99.90;;;;;;2078181;28;20025;-72
2022/12/07 05:29:02;;;;;;;19.17;17.17;;;6.60;99.90;;;;;;2075552;28;20037;-72
2022/12/07 05:30:04;;;;;;;19.98;17.88;;;6.60;99.90;;;;;;2075228;28;20683;-72
2022/12/07 05:31:04;;;;;;;19.45;17.05;;;6.60;99.90;;;;;;2075339;28;20025;-72
2022/12/07 05:32:05;;;;;;;20.95;17.90;;;6.60;99.90;;;;;;2075704;28;20037;-73
2022/12/07 05:33:05;;;;;;;19.58;17.58;;;6.60;99.90;;;;;;2074569;28;20025;-72
2022/12/07 05:34:06;;;;;;;21.38;16.67;;;6.60;99.90;;;;;;2076976;28;20037;-72